Chemstar Yasu — 3ETR3 — position and weather

sailwx.info

Track history (hours):
 
Tides and Currents Weather Stations Pressure Air Temp Water Temp Dewpoint Dewpoint Depression Visibility Wind Speed Wind Dir Waves Ship Positions

Chemstar Yasu

Last reported at 2018-May-25 06:55 UTC. Time now 2018-May-25 06:59 UTC.
Position N 29°36' W 093°44'.

Length 147 m; draft 6.2 m.

Type: Tanker. MMSI: 370646000.

Date/timePositionNaut miles runAvg speedWind from/ knotsBaromVisibWave heightAir tempDewpointWater temp
2018-May-25 06:55N 29°36' W 093°44'0 0.0
2018-May-25 06:28N 29°36' W 093°44'0 0.0
2018-May-25 05:58N 29°36' W 093°44'0 0.0
2018-May-25 05:25N 29°36' W 093°44'0 0.0
2018-May-25 04:58N 29°36' W 093°44'0 0.0
2018-May-25 04:28N 29°36' W 093°44'0 0.0
2018-May-25 03:49N 29°36' W 093°44'0 0.0
2018-May-25 03:28N 29°36' W 093°44'0 0.0
2018-May-25 02:58N 29°36' W 093°44'0 0.0
2018-May-25 02:28N 29°36' W 093°44'0 0.0
2018-May-25 01:58N 29°36' W 093°44'0 0.0
2018-May-25 01:28N 29°36' W 093°44'0 0.0
2018-May-25 00:58N 29°36' W 093°44'0 0.0
2018-May-25 00:28N 29°36' W 093°44'0 0.0
2018-May-24 23:58N 29°36' W 093°44'0 0.0
2018-May-24 23:28N 29°36' W 093°44'0 0.0
2018-May-24 22:58N 29°36' W 093°44'0 0.1
2018-May-24 22:28N 29°36' W 093°44'0 0.0
2018-May-24 21:58N 29°36' W 093°44'0 0.0
2018-May-24 21:28N 29°36' W 093°44'0 0.0
2018-May-24 20:58N 29°36' W 093°44'0 0.0
2018-May-24 20:28N 29°36' W 093°44'0 0.0
2018-May-24 19:58N 29°36' W 093°44'0 0.0
2018-May-24 19:25N 29°36' W 093°44'0 0.0
2018-May-24 18:58N 29°36' W 093°44'0 0.1
2018-May-24 18:28N 29°36' W 093°44'0 0.0
2018-May-24 17:46N 29°36' W 093°44'0 0.0
2018-May-24 17:28N 29°36' W 093°44'0 0.0
2018-May-24 16:55N 29°36' W 093°44'0 0.0
2018-May-24 16:28N 29°36' W 093°44'0 0.0
2018-May-24 15:58N 29°36' W 093°44'0 0.0
2018-May-24 15:25N 29°36' W 093°44'0 0.0
2018-May-24 14:58N 29°36' W 093°44'0 0.0
2018-May-24 14:22N 29°36' W 093°44'0 0.0
2018-May-24 13:52N 29°36' W 093°44'0 0.0
2018-May-24 13:28N 29°36' W 093°44'0 0.0
2018-May-24 08:58N 29°36' W 093°44'0 0.1
2018-May-24 08:28N 29°36' W 093°44'0 0.0
2018-May-24 07:58N 29°36' W 093°44'0 0.2
2018-May-24 07:28N 29°36' W 093°44'0 1.1
2018-May-24 07:00N 29°36' W 093°45'5 9.6
2018-May-24 06:30N 29°31' W 093°43'610.8
2018-May-24 05:59N 29°26' W 093°40'48 1.8
2018-May-23 04:08N 28°59' W 094°25'313.1
2018-May-23 03:55N 29°02' W 094°25'912.0
2018-May-23 03:12N 29°10' W 094°29'313.2
2018-May-23 03:00N 29°11' W 094°31'713.2
2018-May-23 02:29N 29°16' W 094°36'611.2
2018-May-23 01:58N 29°20' W 094°41'612.7
2018-May-23 01:30N 29°22' W 094°48'612.4
2018-May-23 00:59N 29°27' W 094°51'611.8
2018-May-23 00:30N 29°32' W 094°54'510.1
2018-May-23 00:00N 29°37' W 094°57'4 9.0
2018-May-22 23:31N 29°41' W 094°59'4 7.7
2018-May-22 23:00N 29°44' W 095°02'4 7.3
2018-May-22 22:30N 29°46' W 095°05'1 0.1
2018-May-22 13:01N 29°45' W 095°06'0 0.7
2018-May-22 12:57N 29°45' W 095°06'2 0.1
2018-May-21 22:52N 29°44' W 095°08'1 2.7
2018-May-21 22:29N 29°44' W 095°07'3 4.8
2018-May-21 21:55N 29°44' W 095°03'3 6.5
2018-May-21 21:30N 29°42' W 095°01'510.4
2018-May-21 21:00N 29°38' W 094°58'612.3
2018-May-21 20:30N 29°33' W 094°54'712.7
2018-May-21 19:59N 29°27' W 094°51'714.0
2018-May-21 19:30N 29°21' W 094°47'713.4
2018-May-21 18:57N 29°19' W 094°39'511.2
2018-May-21 18:30N 29°16' W 094°34'4 0.3
2018-May-21 05:55N 29°18' W 094°30'0 0.0
2018-May-21 05:28N 29°18' W 094°30'0 0.0
2018-May-21 04:58N 29°18' W 094°30'0 0.1
2018-May-21 03:55N 29°18' W 094°30'16 0.6
2018-May-20 00:52N 29°06' W 094°18'512.6
2018-May-20 00:29N 29°03' W 094°13'713.2
2018-May-19 23:57N 28°59' W 094°07'  
2018-May-17 01:28N 25°38' W 079°31'511.4
2018-May-17 01:00N 25°44' W 079°30'611.6
2018-May-17 00:26N 25°50' W 079°29'511.6
2018-May-17 00:01N 25°55' W 079°29'911.6
2018-May-16 23:14N 26°04' W 079°28'311.6
2018-May-16 22:59N 26°07' W 079°28'611.6
2018-May-16 22:31N 26°12' W 079°27'611.6
2018-May-16 22:01N 26°18' W 079°27'  
Track history (hours):
 
Tides and Currents Weather Stations Pressure Air Temp Water Temp Dewpoint Dewpoint Depression Visibility Wind Speed Wind Dir Waves Ship Positions

Chemstar Yasu

Last reported at 2018-May-25 06:55 UTC. Time now 2018-May-25 06:59 UTC.
Position N 29°36' W 093°44'.

Length 147 m; draft 6.2 m.

Type: Tanker. MMSI: 370646000.

Date/timePositionNaut miles runAvg speedWind from/ knotsBaromVisibWave heightAir tempDewpointWater temp
2018-May-25 06:55N 29°36' W 093°44'0 0.0
2018-May-25 06:28N 29°36' W 093°44'0 0.0
2018-May-25 05:58N 29°36' W 093°44'0 0.0
2018-May-25 05:25N 29°36' W 093°44'0 0.0
2018-May-25 04:58N 29°36' W 093°44'0 0.0
2018-May-25 04:28N 29°36' W 093°44'0 0.0
2018-May-25 03:49N 29°36' W 093°44'0 0.0
2018-May-25 03:28N 29°36' W 093°44'0 0.0
2018-May-25 02:58N 29°36' W 093°44'0 0.0
2018-May-25 02:28N 29°36' W 093°44'0 0.0
2018-May-25 01:58N 29°36' W 093°44'0 0.0
2018-May-25 01:28N 29°36' W 093°44'0 0.0
2018-May-25 00:58N 29°36' W 093°44'0 0.0
2018-May-25 00:28N 29°36' W 093°44'0 0.0
2018-May-24 23:58N 29°36' W 093°44'0 0.0
2018-May-24 23:28N 29°36' W 093°44'0 0.0
2018-May-24 22:58N 29°36' W 093°44'0 0.1
2018-May-24 22:28N 29°36' W 093°44'0 0.0
2018-May-24 21:58N 29°36' W 093°44'0 0.0
2018-May-24 21:28N 29°36' W 093°44'0 0.0
2018-May-24 20:58N 29°36' W 093°44'0 0.0
2018-May-24 20:28N 29°36' W 093°44'0 0.0
2018-May-24 19:58N 29°36' W 093°44'0 0.0
2018-May-24 19:25N 29°36' W 093°44'0 0.0
2018-May-24 18:58N 29°36' W 093°44'0 0.1
2018-May-24 18:28N 29°36' W 093°44'0 0.0
2018-May-24 17:46N 29°36' W 093°44'0 0.0
2018-May-24 17:28N 29°36' W 093°44'0 0.0
2018-May-24 16:55N 29°36' W 093°44'0 0.0
2018-May-24 16:28N 29°36' W 093°44'0 0.0
2018-May-24 15:58N 29°36' W 093°44'0 0.0
2018-May-24 15:25N 29°36' W 093°44'0 0.0
2018-May-24 14:58N 29°36' W 093°44'0 0.0
2018-May-24 14:22N 29°36' W 093°44'0 0.0
2018-May-24 13:52N 29°36' W 093°44'0 0.0
2018-May-24 13:28N 29°36' W 093°44'0 0.0
2018-May-24 08:58N 29°36' W 093°44'0 0.1
2018-May-24 08:28N 29°36' W 093°44'0 0.0
2018-May-24 07:58N 29°36' W 093°44'0 0.2
2018-May-24 07:28N 29°36' W 093°44'0 1.1
2018-May-24 07:00N 29°36' W 093°45'5 9.6
2018-May-24 06:30N 29°31' W 093°43'610.8
2018-May-24 05:59N 29°26' W 093°40'48 1.8
2018-May-23 04:08N 28°59' W 094°25'313.1
2018-May-23 03:55N 29°02' W 094°25'912.0
2018-May-23 03:12N 29°10' W 094°29'313.2
2018-May-23 03:00N 29°11' W 094°31'713.2
2018-May-23 02:29N 29°16' W 094°36'611.2
2018-May-23 01:58N 29°20' W 094°41'612.7
2018-May-23 01:30N 29°22' W 094°48'612.4
2018-May-23 00:59N 29°27' W 094°51'611.8
2018-May-23 00:30N 29°32' W 094°54'510.1
2018-May-23 00:00N 29°37' W 094°57'4 9.0
2018-May-22 23:31N 29°41' W 094°59'4 7.7
2018-May-22 23:00N 29°44' W 095°02'4 7.3
2018-May-22 22:30N 29°46' W 095°05'1 0.1
2018-May-22 13:01N 29°45' W 095°06'0 0.7
2018-May-22 12:57N 29°45' W 095°06'2 0.1
2018-May-21 22:52N 29°44' W 095°08'1 2.7
2018-May-21 22:29N 29°44' W 095°07'3 4.8
2018-May-21 21:55N 29°44' W 095°03'3 6.5
2018-May-21 21:30N 29°42' W 095°01'510.4
2018-May-21 21:00N 29°38' W 094°58'612.3
2018-May-21 20:30N 29°33' W 094°54'712.7
2018-May-21 19:59N 29°27' W 094°51'714.0
2018-May-21 19:30N 29°21' W 094°47'713.4
2018-May-21 18:57N 29°19' W 094°39'511.2
2018-May-21 18:30N 29°16' W 094°34'4 0.3
2018-May-21 05:55N 29°18' W 094°30'0 0.0
2018-May-21 05:28N 29°18' W 094°30'0 0.0
2018-May-21 04:58N 29°18' W 094°30'0 0.1
2018-May-21 03:55N 29°18' W 094°30'16 0.6
2018-May-20 00:52N 29°06' W 094°18'512.6
2018-May-20 00:29N 29°03' W 094°13'713.2
2018-May-19 23:57N 28°59' W 094°07'  
2018-May-17 01:28N 25°38' W 079°31'511.4
2018-May-17 01:00N 25°44' W 079°30'611.6
2018-May-17 00:26N 25°50' W 079°29'511.6
2018-May-17 00:01N 25°55' W 079°29'911.6
2018-May-16 23:14N 26°04' W 079°28'311.6
2018-May-16 22:59N 26°07' W 079°28'611.6
2018-May-16 22:31N 26°12' W 079°27'611.6
2018-May-16 22:01N 26°18' W 079°27'  

Dump ship's entire track history